Time;durP1;ratioP1;P1;durP2;ratioP2;P2;SDS_P1;SDS_P2;PMS_P1;PMS_P2;Temp;Humidity;BMP_temperature;BMP_pressure;BME280_temperature;BME280_humidity;BME280_pressure;Samples;Min_cycle;Max_cycle;Signal;HPM_P1;HPM_P2
2021/12/29 00:00:40;;;;;;;13.93;10.60;;;8.50;1.00;;;;;;5079854;28;20248;-61
2021/12/29 00:03:07;;;;;;;13.23;10.40;;;8.60;1.00;;;;;;5080707;28;20203;-61
2021/12/29 00:05:35;;;;;;;11.17;8.93;;;8.60;1.00;;;;;;5060959;28;20278;-62
2021/12/29 00:08:03;;;;;;;10.53;9.10;;;8.60;1.00;;;;;;5048778;28;20198;-63
2021/12/29 00:10:30;;;;;;;7.80;7.00;;;8.50;1.00;;;;;;5066284;28;20182;-63
2021/12/29 00:12:57;;;;;;;8.50;7.57;;;8.60;1.00;;;;;;5067103;28;20182;-62
2021/12/29 00:15:27;;;;;;;7.97;7.17;;;8.60;99.90;;;;;;5082287;28;20213;-64
2021/12/29 00:17:57;;;;;;;7.77;6.80;;;8.70;99.90;;;;;;5068232;28;20194;-63
2021/12/29 00:20:28;;;;;;;7.40;6.27;;;8.70;99.90;;;;;;5050649;28;20219;-62
2021/12/29 00:23:16;;;;;;;7.93;6.30;;;8.70;1.00;;;;;;5079969;28;20268;-62
2021/12/29 00:25:45;;;;;;;9.03;6.47;;;8.70;1.00;;;;;;5061836;28;20199;-63
2021/12/29 00:28:14;;;;;;;8.23;6.93;;;8.80;1.00;;;;;;5084014;28;20186;-62
2021/12/29 00:30:42;;;;;;;10.30;7.00;;;8.70;1.00;;;;;;5063559;28;20222;-63
2021/12/29 00:33:32;;;;;;;8.00;6.40;;;8.80;1.00;;;;;;5042604;28;20680;-63
2021/12/29 00:36:24;;;;;;;7.90;6.47;;;8.70;1.00;;;;;;5079281;28;20205;-62
2021/12/29 00:39:11;;;;;;;7.73;6.90;;;8.80;1.00;;;;;;5041037;28;20202;-63
2021/12/29 00:41:44;;;;;;;7.63;6.43;;;8.80;1.00;;;;;;5078186;28;20263;-62
2021/12/29 00:44:37;;;;;;;6.33;5.70;;;8.80;1.00;;;;;;5036546;28;20227;-62
2021/12/29 00:47:13;;;;;;;9.43;6.80;;;8.80;1.00;;;;;;5063110;28;20213;-63
2021/12/29 00:49:40;;;;;;;7.93;5.93;;;8.80;1.00;;;;;;5059746;28;20214;-61
2021/12/29 00:52:09;;;;;;;6.93;6.17;;;8.80;1.00;;;;;;5078265;28;20202;-62
2021/12/29 00:54:38;;;;;;;6.67;5.93;;;8.80;99.90;;;;;;5066733;28;20266;-62
2021/12/29 00:57:06;;;;;;;6.63;5.83;;;8.80;99.90;;;;;;5041717;28;20639;-62
2021/12/29 00:59:35;;;;;;;6.70;5.60;;;8.80;99.90;;;;;;5079725;28;20197;-63
2021/12/29 01:02:06;;;;;;;5.63;5.00;;;8.90;54.00;;;;;;5081515;28;20213;-61
2021/12/29 01:04:34;;;;;;;5.47;4.77;;;8.90;1.00;;;;;;5082333;28;20690;-61
2021/12/29 01:07:02;;;;;;;6.10;5.50;;;8.90;1.00;;;;;;5085870;28;20195;-60
2021/12/29 01:09:29;;;;;;;7.03;4.83;;;8.90;1.00;;;;;;5086105;28;20194;-63
2021/12/29 01:11:57;;;;;;;5.67;4.80;;;8.90;1.00;;;;;;5069108;28;20230;-62
2021/12/29 01:14:26;;;;;;;5.30;4.57;;;8.90;99.90;;;;;;5083842;28;20203;-63
2021/12/29 01:16:53;;;;;;;7.37;5.03;;;8.90;99.90;;;;;;5070497;28;20689;-62
2021/12/29 01:19:27;;;;;;;5.43;4.93;;;8.90;99.90;;;;;;5086072;28;20277;-62
2021/12/29 01:21:57;;;;;;;5.03;4.53;;;8.90;3.00;;;;;;5087612;28;20215;-62
2021/12/29 01:24:26;;;;;;;5.70;5.20;;;8.90;1.00;;;;;;5069080;28;20252;-62
2021/12/29 01:26:55;;;;;;;6.00;5.40;;;8.90;1.00;;;;;;5080480;28;20230;-63
2021/12/29 01:29:26;;;;;;;5.83;5.23;;;8.90;1.00;;;;;;5083757;28;20225;-62
2021/12/29 01:31:53;;;;;;;7.07;5.57;;;8.90;1.00;;;;;;5082853;28;20234;-62
2021/12/29 01:34:20;;;;;;;5.77;5.17;;;8.90;1.00;;;;;;5083833;28;20235;-61
2021/12/29 01:36:47;;;;;;;5.03;4.53;;;8.90;1.00;;;;;;5064536;28;20677;-62
2021/12/29 01:39:16;;;;;;;6.00;5.43;;;8.90;99.90;;;;;;5082541;28;20195;-62
2021/12/29 01:41:46;;;;;;;6.33;5.07;;;8.90;99.90;;;;;;5063327;28;20226;-62
2021/12/29 01:44:15;;;;;;;5.80;5.30;;;9.00;1.00;;;;;;5068727;28;20191;-62
2021/12/29 01:46:46;;;;;;;5.40;4.90;;;9.00;1.00;;;;;;5079981;28;20195;-61
2021/12/29 01:49:14;;;;;;;7.07;6.37;;;9.00;1.00;;;;;;5084307;28;20190;-61
2021/12/29 01:51:48;;;;;;;6.67;5.97;;;9.00;1.00;;;;;;5082649;28;20195;-61
2021/12/29 01:54:26;;;;;;;7.13;6.43;;;9.00;1.00;;;;;;5070552;28;20194;-61
2021/12/29 01:56:56;;;;;;;7.20;6.50;;;9.00;1.00;;;;;;5081082;28;20531;-62
2021/12/29 01:59:25;;;;;;;8.10;7.33;;;9.10;99.90;;;;;;5084131;28;20194;-62
2021/12/29 02:01:53;;;;;;;8.20;7.40;;;9.10;99.90;;;;;;5082433;28;20741;-61
2021/12/29 02:04:25;;;;;;;10.87;9.77;;;9.10;99.90;;;;;;5068012;28;20293;-62
2021/12/29 02:06:52;;;;;;;9.20;8.30;;;9.00;99.90;;;;;;5068762;28;20281;-62
2021/12/29 02:09:19;;;;;;;8.33;7.40;;;9.00;1.00;;;;;;5062829;28;20195;-64
2021/12/29 02:11:47;;;;;;;8.33;7.17;;;9.00;1.00;;;;;;5082878;28;20210;-63
2021/12/29 02:14:14;;;;;;;8.27;7.47;;;9.00;1.00;;;;;;5085613;28;20198;-62
2021/12/29 02:16:42;;;;;;;8.20;7.20;;;9.00;1.00;;;;;;5084617;28;20194;-62
2021/12/29 02:19:14;;;;;;;8.17;7.23;;;8.90;1.00;;;;;;5084331;28;20190;-62
2021/12/29 02:21:50;;;;;;;8.77;7.90;;;8.90;1.00;;;;;;5051995;28;20297;-62
2021/12/29 02:24:19;;;;;;;8.97;8.07;;;8.90;1.00;;;;;;5084099;28;20663;-62
2021/12/29 02:26:47;;;;;;;11.73;9.80;;;8.90;1.00;;;;;;5083344;28;20706;-63
2021/12/29 02:29:17;;;;;;;9.07;8.17;;;8.90;27.20;;;;;;5085145;28;20249;-61
2021/12/29 02:31:46;;;;;;;10.33;9.03;;;8.90;99.90;;;;;;5080475;28;20222;-62
2021/12/29 02:34:15;;;;;;;10.77;8.17;;;8.90;99.90;;;;;;5081891;28;20951;-62
2021/12/29 02:36:44;;;;;;;8.53;7.67;;;8.90;72.60;;;;;;5080848;28;20277;-61
2021/12/29 02:39:21;;;;;;;8.00;7.00;;;9.00;24.70;;;;;;5081969;28;20226;-60
2021/12/29 02:41:53;;;;;;;9.80;8.00;;;9.00;1.00;;;;;;5084706;28;20285;-62
2021/12/29 02:44:28;;;;;;;8.67;7.60;;;9.00;1.00;;;;;;5059813;28;20584;-61
2021/12/29 02:46:57;;;;;;;8.20;6.00;;;9.00;1.00;;;;;;5085333;28;20665;-63
2021/12/29 02:49:25;;;;;;;14.57;9.57;;;9.00;99.90;;;;;;5049837;28;20195;-63
2021/12/29 02:51:53;;;;;;;11.70;9.23;;;9.00;1.00;;;;;;5070464;28;20202;-64
2021/12/29 02:54:20;;;;;;;9.60;7.50;;;8.90;1.00;;;;;;5068770;28;20198;-63
2021/12/29 02:56:49;;;;;;;12.13;9.53;;;8.80;1.00;;;;;;5090067;28;20202;-63
2021/12/29 02:59:24;;;;;;;11.77;9.97;;;8.80;99.90;;;;;;5091250;28;20205;-64
2021/12/29 03:01:51;;;;;;;9.50;8.47;;;8.80;1.00;;;;;;5087859;28;20716;-64
2021/12/29 03:04:19;;;;;;;9.73;8.43;;;8.80;1.00;;;;;;5090883;28;20194;-64
2021/12/29 03:06:46;;;;;;;10.10;9.10;;;8.80;1.00;;;;;;5088725;28;20298;-63
2021/12/29 03:09:16;;;;;;;9.57;8.67;;;8.80;99.90;;;;;;5072917;28;20237;-63
2021/12/29 03:11:46;;;;;;;8.77;7.97;;;8.80;1.00;;;;;;5069984;28;20226;-62
2021/12/29 03:14:15;;;;;;;8.07;6.70;;;8.70;1.00;;;;;;5089167;28;20198;-62
2021/12/29 03:16:42;;;;;;;8.07;7.03;;;8.70;95.30;;;;;;5072228;28;20210;-64
2021/12/29 03:19:09;;;;;;;9.57;8.67;;;8.70;99.90;;;;;;5069938;28;20731;-64
2021/12/29 03:21:36;;;;;;;9.70;8.80;;;8.80;99.90;;;;;;5089358;28;20302;-63
2021/12/29 03:24:04;;;;;;;8.53;7.63;;;8.80;99.90;;;;;;5070284;28;20229;-63
2021/12/29 03:26:35;;;;;;;8.83;7.37;;;8.80;99.90;;;;;;5073327;28;20199;-64
2021/12/29 03:29:04;;;;;;;11.37;7.40;;;8.80;99.90;;;;;;5089365;28;20187;-64
2021/12/29 03:31:33;;;;;;;8.30;7.30;;;8.80;99.90;;;;;;5090478;28;20252;-62
2021/12/29 03:34:00;;;;;;;7.90;7.17;;;8.80;1.00;;;;;;5089954;28;20251;-64
2021/12/29 03:36:28;;;;;;;8.63;7.33;;;8.80;1.00;;;;;;5082803;28;20209;-62
2021/12/29 03:38:55;;;;;;;8.97;8.07;;;8.80;1.00;;;;;;5071757;28;20251;-62
2021/12/29 03:41:24;;;;;;;6.77;6.17;;;8.80;99.90;;;;;;5066275;28;20190;-64
2021/12/29 03:43:51;;;;;;;7.53;6.73;;;8.80;99.90;;;;;;5090283;28;20279;-63
2021/12/29 03:46:19;;;;;;;7.83;7.03;;;8.80;18.90;;;;;;5073298;28;20558;-62
2021/12/29 03:48:47;;;;;;;6.83;6.20;;;8.90;1.00;;;;;;5089931;28;20222;-63
2021/12/29 03:51:14;;;;;;;7.43;6.53;;;8.90;1.00;;;;;;5071706;28;20201;-63
2021/12/29 03:53:42;;;;;;;7.70;6.93;;;8.90;99.90;;;;;;5090023;28;20218;-64
2021/12/29 03:56:09;;;;;;;8.30;6.60;;;8.90;99.90;;;;;;5079188;28;20224;-63
2021/12/29 03:58:36;;;;;;;6.73;6.03;;;8.90;99.90;;;;;;5089447;28;20262;-64
2021/12/29 04:01:10;;;;;;;6.63;5.63;;;8.90;99.90;;;;;;5071177;28;20317;-64
2021/12/29 04:03:38;;;;;;;7.83;7.03;;;8.90;99.90;;;;;;5073212;28;20214;-63
2021/12/29 04:06:05;;;;;;;9.60;8.70;;;8.90;1.00;;;;;;5089400;28;20186;-63
2021/12/29 04:08:32;;;;;;;7.00;5.97;;;8.90;1.00;;;;;;5088025;28;20605;-63
2021/12/29 04:10:59;;;;;;;6.93;6.33;;;8.90;99.90;;;;;;5085451;28;20228;-63
2021/12/29 04:13:26;;;;;;;8.93;7.73;;;8.90;99.90;;;;;;5047966;28;20202;-64
2021/12/29 04:15:53;;;;;;;7.87;7.07;;;8.90;1.00;;;;;;5069533;28;20247;-64
2021/12/29 04:18:26;;;;;;;8.73;7.90;;;8.80;1.00;;;;;;5086499;28;20287;-63
2021/12/29 04:21:01;;;;;;;8.03;7.27;;;8.80;93.30;;;;;;5066921;28;20275;-64
2021/12/29 04:23:31;;;;;;;10.03;8.63;;;8.80;99.90;;;;;;5088937;28;20206;-64
2021/12/29 04:26:01;;;;;;;9.83;8.47;;;8.80;1.00;;;;;;5087521;28;20195;-64
2021/12/29 04:28:32;;;;;;;11.87;8.90;;;8.80;1.00;;;;;;5084333;28;20296;-64
2021/12/29 04:31:07;;;;;;;9.57;8.57;;;8.80;92.40;;;;;;5087248;28;20280;-64
2021/12/29 04:33:36;;;;;;;11.67;10.27;;;8.80;99.90;;;;;;5069534;28;20305;-63
2021/12/29 04:36:04;;;;;;;11.53;10.17;;;8.70;1.00;;;;;;5088298;28;20194;-63
2021/12/29 04:38:31;;;;;;;10.63;9.53;;;8.70;45.90;;;;;;5065230;28;20282;-63
2021/12/29 04:40:58;;;;;;;9.53;8.57;;;8.70;1.00;;;;;;5069984;28;20198;-64
2021/12/29 04:43:25;;;;;;;11.77;8.80;;;8.70;1.00;;;;;;5086737;28;20621;-63
2021/12/29 04:45:53;;;;;;;10.30;9.00;;;8.70;99.90;;;;;;5070731;28;20210;-63
2021/12/29 04:48:23;;;;;;;8.77;7.87;;;8.70;1.00;;;;;;5067693;28;20198;-64
2021/12/29 04:51:03;;;;;;;11.03;8.60;;;8.70;3.10;;;;;;5086649;28;20198;-65
2021/12/29 04:53:31;;;;;;;9.40;8.33;;;8.70;99.90;;;;;;5071186;28;20190;-64
2021/12/29 04:55:59;;;;;;;11.73;8.40;;;8.70;1.00;;;;;;5088774;28;20202;-64
2021/12/29 04:58:27;;;;;;;11.23;9.20;;;8.70;1.00;;;;;;5090663;28;20190;-64
2021/12/29 05:00:54;;;;;;;10.77;8.57;;;8.70;1.00;;;;;;5089045;28;20202;-64
2021/12/29 05:03:21;;;;;;;12.53;10.40;;;8.70;1.00;;;;;;5072812;28;20938;-63
2021/12/29 05:08:24;;;;;;;15.83;11.43;;;8.70;1.00;;;;;;5074200;28;20194;-63
2021/12/29 05:08:44;;;;;;;15.63;12.30;;;8.60;1.00;;;;;;5093346;28;20608;-63
2021/12/29 05:11:15;;;;;;;18.40;13.30;;;8.70;1.00;;;;;;5073533;28;20686;-63
2021/12/29 05:13:45;;;;;;;16.43;11.90;;;8.70;1.00;;;;;;5074121;28;20275;-63
2021/12/29 05:16:12;;;;;;;13.97;11.57;;;8.70;1.00;;;;;;5071786;28;20190;-63
2021/12/29 05:18:40;;;;;;;16.60;12.60;;;8.60;1.00;;;;;;5071255;28;20206;-64
2021/12/29 05:21:08;;;;;;;13.50;10.40;;;8.70;1.00;;;;;;5088295;28;20275;-64
2021/12/29 05:23:36;;;;;;;14.93;10.60;;;8.60;1.00;;;;;;5062171;28;20237;-63
2021/12/29 05:26:04;;;;;;;12.77;9.43;;;8.60;1.00;;;;;;5088075;28;20198;-63
2021/12/29 05:28:31;;;;;;;14.47;10.10;;;8.70;1.00;;;;;;5071325;28;20301;-63
2021/12/29 05:30:59;;;;;;;10.70;8.93;;;8.70;1.00;;;;;;5085702;28;20254;-64
2021/12/29 05:33:26;;;;;;;13.60;10.30;;;8.70;1.00;;;;;;5067876;28;20202;-62
2021/12/29 05:35:53;;;;;;;10.87;9.73;;;8.70;1.00;;;;;;5069535;28;20705;-62
2021/12/29 05:38:26;;;;;;;12.67;9.87;;;8.70;1.00;;;;;;5065084;28;20194;-62
2021/12/29 05:40:56;;;;;;;13.43;10.27;;;8.70;3.30;;;;;;5087686;28;20191;-64
2021/12/29 05:43:25;;;;;;;15.63;11.47;;;8.70;1.00;;;;;;5072049;28;20639;-64
2021/12/29 05:45:52;;;;;;;15.43;11.50;;;8.70;1.00;;;;;;5086400;28;20216;-63
2021/12/29 05:48:19;;;;;;;14.70;11.70;;;8.60;1.00;;;;;;5069669;28;20191;-63
2021/12/29 05:50:47;;;;;;;12.90;10.87;;;8.60;1.00;;;;;;5065632;28;20255;-63
2021/12/29 05:53:14;;;;;;;18.27;13.80;;;8.70;1.00;;;;;;5091001;28;20236;-63
2021/12/29 05:55:41;;;;;;;14.67;10.97;;;8.70;1.00;;;;;;5072895;28;20350;-63
2021/12/29 05:58:11;;;;;;;15.10;11.90;;;8.60;1.00;;;;;;5067680;28;20600;-63
2021/12/29 06:00:40;;;;;;;14.00;11.87;;;8.70;1.50;;;;;;5088899;28;20263;-63
2021/12/29 06:03:07;;;;;;;16.37;11.73;;;8.60;13.90;;;;;;5072841;28;20633;-64
2021/12/29 06:05:35;;;;;;;11.47;8.53;;;8.60;65.50;;;;;;5090650;28;20301;-63
2021/12/29 06:08:03;;;;;;;12.57;9.33;;;8.70;72.40;;;;;;5071339;28;20198;-65
2021/12/29 06:10:30;;;;;;;13.00;9.17;;;8.70;96.10;;;;;;5089973;28;20194;-62
2021/12/29 06:12:57;;;;;;;10.83;9.23;;;8.70;17.00;;;;;;5073095;28;20202;-62
2021/12/29 06:15:27;;;;;;;11.97;9.43;;;8.70;1.00;;;;;;5087882;28;20194;-63
2021/12/29 06:17:55;;;;;;;14.07;10.57;;;8.70;1.00;;;;;;5070585;28;20198;-62
2021/12/29 06:20:22;;;;;;;13.00;10.13;;;8.70;1.00;;;;;;5064806;28;20821;-62
2021/12/29 06:22:49;;;;;;;14.77;10.27;;;8.60;1.00;;;;;;5072181;28;20220;-62
2021/12/29 06:25:18;;;;;;;13.17;10.33;;;8.60;1.00;;;;;;5063131;28;20633;-62
2021/12/29 06:27:45;;;;;;;12.27;9.60;;;8.60;1.00;;;;;;5089683;28;20205;-62
2021/12/29 06:30:16;;;;;;;14.13;10.13;;;8.50;1.00;;;;;;5089658;28;20879;-61
2021/12/29 06:32:44;;;;;;;15.00;10.47;;;8.50;1.00;;;;;;5088777;28;20257;-61
2021/12/29 06:35:12;;;;;;;13.53;9.97;;;8.60;99.90;;;;;;5087909;28;20186;-61
2021/12/29 06:37:40;;;;;;;13.20;9.90;;;8.50;20.30;;;;;;5088693;28;20190;-61
2021/12/29 06:40:07;;;;;;;15.17;9.67;;;8.50;1.00;;;;;;5071694;28;20721;-61
2021/12/29 06:42:35;;;;;;;11.63;9.20;;;8.50;1.00;;;;;;5090581;28;20234;-63
2021/12/29 06:45:02;;;;;;;15.60;9.83;;;8.50;1.00;;;;;;5089876;28;20190;-60
2021/12/29 06:47:29;;;;;;;16.60;10.47;;;8.40;99.90;;;;;;5066355;28;20206;-60
2021/12/29 06:49:56;;;;;;;15.43;11.10;;;8.40;1.00;;;;;;5088040;28;20230;-60
2021/12/29 06:52:23;;;;;;;17.30;13.70;;;8.40;99.90;;;;;;5071082;28;20202;-61
2021/12/29 06:54:51;;;;;;;21.10;16.43;;;8.40;99.90;;;;;;5070633;28;20221;-61
2021/12/29 06:57:20;;;;;;;24.00;17.03;;;8.50;20.50;;;;;;5055474;28;20202;-60
2021/12/29 06:59:48;;;;;;;23.63;18.27;;;8.50;1.00;;;;;;5089401;28;20197;-61
2021/12/29 07:02:15;;;;;;;25.17;19.30;;;8.50;1.00;;;;;;5070395;28;20195;-61
2021/12/29 07:04:43;;;;;;;25.90;19.50;;;8.40;99.90;;;;;;5087290;28;20190;-60
2021/12/29 07:07:10;;;;;;;21.83;17.30;;;8.40;1.00;;;;;;5089545;28;20252;-61
2021/12/29 07:09:37;;;;;;;22.73;16.40;;;8.40;1.00;;;;;;5086241;28;20201;-61
2021/12/29 07:12:04;;;;;;;24.60;17.30;;;8.40;99.90;;;;;;5069626;28;20199;-61
2021/12/29 07:14:40;;;;;;;18.73;14.30;;;8.40;99.90;;;;;;5089378;28;20202;-61
2021/12/29 07:17:07;;;;;;;21.83;13.93;;;8.40;99.90;;;;;;5072261;28;20210;-60
2021/12/29 07:19:34;;;;;;;18.27;13.27;;;8.40;1.00;;;;;;5072633;28;20221;-62
2021/12/29 07:22:03;;;;;;;19.40;13.97;;;8.40;1.00;;;;;;5088351;28;20542;-63
2021/12/29 07:24:34;;;;;;;17.90;12.57;;;8.40;1.00;;;;;;5070615;28;20919;-63
2021/12/29 07:27:01;;;;;;;19.70;12.63;;;8.40;1.00;;;;;;5070337;28;20198;-62
2021/12/29 07:29:28;;;;;;;17.87;12.50;;;8.40;99.90;;;;;;5089178;28;20201;-61
2021/12/29 07:31:58;;;;;;;18.33;12.60;;;8.50;99.90;;;;;;5088692;28;20230;-61
2021/12/29 07:34:26;;;;;;;20.47;13.00;;;8.40;1.00;;;;;;5087407;28;20676;-61
2021/12/29 07:36:53;;;;;;;21.73;13.90;;;8.40;1.00;;;;;;5086670;28;20681;-62
2021/12/29 07:39:20;;;;;;;18.10;12.80;;;8.40;1.00;;;;;;5087331;28;20229;-62
2021/12/29 07:41:49;;;;;;;21.50;14.70;;;8.40;1.00;;;;;;5090220;28;20549;-61
2021/12/29 07:44:21;;;;;;;25.17;15.60;;;8.40;1.00;;;;;;5068494;28;20267;-63
2021/12/29 07:46:52;;;;;;;19.07;12.90;;;8.30;99.90;;;;;;5089529;28;20249;-62
2021/12/29 07:49:19;;;;;;;20.03;13.13;;;8.40;99.90;;;;;;5087203;28;20713;-61
2021/12/29 07:51:48;;;;;;;21.13;13.57;;;8.40;99.90;;;;;;5088804;28;20187;-62
2021/12/29 07:54:15;;;;;;;20.10;14.17;;;8.30;99.90;;;;;;5061946;28;20252;-63
2021/12/29 07:56:43;;;;;;;24.13;15.33;;;8.30;99.90;;;;;;5089719;28;20220;-62
2021/12/29 07:59:11;;;;;;;20.23;14.43;;;8.40;1.00;;;;;;5087158;28;20721;-61
2021/12/29 08:01:42;;;;;;;22.10;14.97;;;8.30;99.90;;;;;;5067425;28;20194;-63
2021/12/29 08:04:11;;;;;;;20.57;15.03;;;8.40;1.00;;;;;;5086709;28;20241;-64
2021/12/29 08:06:42;;;;;;;25.07;18.13;;;8.40;1.00;;;;;;5071044;28;20285;-61
2021/12/29 08:09:10;;;;;;;25.00;17.27;;;8.40;99.90;;;;;;5063872;28;20612;-62
2021/12/29 08:11:38;;;;;;;24.60;18.83;;;8.40;99.90;;;;;;5097584;28;20190;-63
2021/12/29 08:14:05;;;;;;;24.57;17.57;;;8.40;99.90;;;;;;5089468;28;20251;-62
2021/12/29 08:16:35;;;;;;;28.30;18.30;;;8.50;59.60;;;;;;5070335;28;20248;-62
2021/12/29 08:19:03;;;;;;;25.77;18.53;;;8.50;8.60;;;;;;5053594;28;20251;-63
2021/12/29 08:21:33;;;;;;;26.90;18.07;;;8.50;1.00;;;;;;5068768;28;20233;-63
2021/12/29 08:24:02;;;;;;;28.53;17.40;;;8.40;1.00;;;;;;5053478;28;20209;-64
2021/12/29 08:26:29;;;;;;;28.47;19.97;;;8.50;1.00;;;;;;5070475;28;20677;-63
2021/12/29 08:28:58;;;;;;;28.57;18.00;;;8.50;47.00;;;;;;5069358;28;20183;-63
2021/12/29 08:31:25;;;;;;;28.27;18.60;;;8.50;99.90;;;;;;5064164;28;20231;-64
2021/12/29 08:33:55;;;;;;;27.33;19.27;;;8.50;99.90;;;;;;5066924;28;20195;-63
2021/12/29 08:36:24;;;;;;;30.07;19.67;;;8.50;99.90;;;;;;5066768;28;20257;-64
2021/12/29 08:38:52;;;;;;;22.53;16.67;;;8.50;73.90;;;;;;5056967;28;20207;-64
2021/12/29 08:41:19;;;;;;;24.87;19.47;;;8.50;93.50;;;;;;5066004;28;20202;-63
2021/12/29 08:43:47;;;;;;;26.80;20.27;;;8.60;99.90;;;;;;5069913;28;20211;-63
2021/12/29 08:46:16;;;;;;;23.63;18.93;;;8.50;74.20;;;;;;5065665;28;20214;-63
2021/12/29 08:48:44;;;;;;;28.47;19.70;;;8.60;99.40;;;;;;5065010;28;20281;-63
2021/12/29 08:51:12;;;;;;;25.57;18.70;;;8.60;98.90;;;;;;5049088;28;20203;-63
2021/12/29 08:53:44;;;;;;;25.87;19.53;;;8.60;99.90;;;;;;5067067;28;20277;-63
2021/12/29 08:56:12;;;;;;;25.23;18.47;;;8.60;1.00;;;;;;5064211;28;20266;-63
2021/12/29 08:58:39;;;;;;;24.13;19.00;;;8.70;1.00;;;;;;5058108;28;20203;-63
2021/12/29 09:01:06;;;;;;;25.50;19.30;;;8.70;1.00;;;;;;5066599;28;20198;-63
2021/12/29 09:03:36;;;;;;;23.70;18.20;;;8.70;1.00;;;;;;5067338;28;20970;-63
2021/12/29 09:06:03;;;;;;;26.47;19.93;;;8.70;1.00;;;;;;5066224;28;20601;-64
2021/12/29 09:08:30;;;;;;;29.37;21.37;;;8.70;1.00;;;;;;5058608;28;20199;-64
2021/12/29 09:10:58;;;;;;;31.03;20.53;;;8.70;1.00;;;;;;5064230;28;20598;-63
2021/12/29 09:13:25;;;;;;;28.43;20.23;;;8.70;1.00;;;;;;5063621;28;20207;-62
2021/12/29 09:15:56;;;;;;;29.87;21.13;;;8.70;1.00;;;;;;5058514;28;20735;-62
2021/12/29 09:18:25;;;;;;;25.97;19.23;;;8.80;1.00;;;;;;5037088;28;20225;-63
2021/12/29 09:20:52;;;;;;;31.10;22.57;;;8.80;99.90;;;;;;5066248;28;20238;-62
2021/12/29 09:23:20;;;;;;;35.77;21.60;;;8.80;99.90;;;;;;5066475;28;20218;-61
2021/12/29 09:25:48;;;;;;;30.37;21.30;;;8.90;99.90;;;;;;5059706;28;20237;-63
2021/12/29 09:28:17;;;;;;;31.40;22.63;;;8.90;99.90;;;;;;5071572;28;20199;-61
2021/12/29 09:30:47;;;;;;;30.00;22.77;;;8.90;65.00;;;;;;5072912;28;20275;-61
2021/12/29 09:33:19;;;;;;;28.50;21.27;;;8.90;99.90;;;;;;5071134;28;20247;-61
2021/12/29 09:35:51;;;;;;;25.47;19.13;;;8.80;99.90;;;;;;5088403;28;20191;-62
2021/12/29 09:38:19;;;;;;;29.97;20.97;;;8.80;99.90;;;;;;5071945;28;20247;-61
2021/12/29 09:40:48;;;;;;;26.93;20.93;;;8.80;1.00;;;;;;5087669;28;20201;-62
2021/12/29 09:43:16;;;;;;;29.73;22.10;;;8.90;1.00;;;;;;5089988;28;20201;-61
2021/12/29 09:45:45;;;;;;;30.30;21.67;;;8.90;1.00;;;;;;5073075;28;20225;-64
2021/12/29 09:48:14;;;;;;;28.43;21.83;;;9.00;1.00;;;;;;5073077;28;20190;-61
2021/12/29 09:50:42;;;;;;;28.60;21.87;;;9.00;1.00;;;;;;5087565;28;20204;-61
2021/12/29 09:53:10;;;;;;;28.10;22.80;;;9.00;99.90;;;;;;5090878;28;20255;-61
2021/12/29 09:55:38;;;;;;;27.17;21.23;;;9.00;99.90;;;;;;5090454;28;20225;-62
2021/12/29 09:58:07;;;;;;;29.27;21.97;;;9.00;99.90;;;;;;5085629;28;20199;-61
2021/12/29 10:00:36;;;;;;;30.90;23.13;;;9.00;1.00;;;;;;5088939;28;20744;-63
2021/12/29 10:03:06;;;;;;;27.07;21.20;;;9.00;1.00;;;;;;5068576;28;20209;-63
2021/12/29 10:05:36;;;;;;;30.13;23.23;;;9.00;1.70;;;;;;5071928;28;20525;-63
2021/12/29 10:08:09;;;;;;;27.13;20.93;;;9.00;1.00;;;;;;5089284;28;20198;-63
2021/12/29 10:10:41;;;;;;;28.73;22.17;;;9.00;38.40;;;;;;5091662;28;20583;-63
2021/12/29 10:13:09;;;;;;;29.80;22.87;;;9.00;99.90;;;;;;5088226;28;20186;-62
2021/12/29 10:15:40;;;;;;;30.53;22.20;;;9.00;58.40;;;;;;5091356;28;20190;-62
2021/12/29 10:18:14;;;;;;;28.50;22.77;;;8.90;1.00;;;;;;5064213;28;20198;-61
2021/12/29 10:20:54;;;;;;;33.30;24.57;;;8.90;1.00;;;;;;5090213;28;20210;-62
2021/12/29 10:23:26;;;;;;;28.80;22.70;;;8.90;1.00;;;;;;5089960;28;20194;-62
2021/12/29 10:26:03;;;;;;;30.03;23.10;;;9.00;1.00;;;;;;5085192;28;20685;-62
2021/12/29 10:28:32;;;;;;;30.73;25.37;;;8.90;1.00;;;;;;5055835;28;20194;-62
2021/12/29 10:31:01;;;;;;;38.57;28.63;;;8.90;1.00;;;;;;5088136;28;20225;-62
2021/12/29 10:33:41;;;;;;;35.73;26.57;;;9.00;42.10;;;;;;5091712;28;20190;-63
2021/12/29 10:36:27;;;;;;;35.23;24.37;;;8.90;26.90;;;;;;5092555;28;20228;-63
2021/12/29 10:39:05;;;;;;;39.57;27.67;;;9.00;99.90;;;;;;5071480;28;20190;-63
2021/12/29 10:41:50;;;;;;;36.10;27.50;;;9.10;79.20;;;;;;5090202;28;20186;-62
2021/12/29 10:44:31;;;;;;;35.27;23.90;;;9.30;1.00;;;;;;5066745;28;20263;-62
2021/12/29 10:47:00;;;;;;;35.50;25.00;;;9.40;1.00;;;;;;5090302;28;20657;-62
2021/12/29 10:49:29;;;;;;;30.87;25.07;;;9.40;1.00;;;;;;5089442;28;20266;-63
2021/12/29 10:51:58;;;;;;;30.70;23.43;;;9.40;1.00;;;;;;5089325;28;20216;-64
2021/12/29 10:54:28;;;;;;;29.97;23.30;;;9.50;1.00;;;;;;5078184;28;20194;-64
2021/12/29 10:57:05;;;;;;;28.93;22.00;;;9.60;1.00;;;;;;5072261;28;20202;-64
2021/12/29 10:59:36;;;;;;;28.53;22.43;;;9.60;1.00;;;;;;5091874;28;20197;-63
2021/12/29 11:02:06;;;;;;;26.90;22.10;;;9.60;99.90;;;;;;5088791;28;20223;-64
2021/12/29 11:04:35;;;;;;;30.87;22.97;;;9.60;99.90;;;;;;5091154;28;20297;-63
2021/12/29 11:07:03;;;;;;;28.37;22.73;;;9.60;99.90;;;;;;5081091;28;20214;-64
2021/12/29 11:09:35;;;;;;;32.37;22.70;;;9.60;99.90;;;;;;5095069;28;20581;-64
2021/12/29 11:12:10;;;;;;;29.63;22.17;;;9.60;1.00;;;;;;5092251;28;20194;-62
2021/12/29 11:14:42;;;;;;;31.07;23.43;;;9.50;1.00;;;;;;5091127;28;20669;-63
2021/12/29 11:17:15;;;;;;;29.57;22.77;;;9.60;88.80;;;;;;5090242;28;20297;-64
2021/12/29 11:19:51;;;;;;;31.23;23.30;;;9.70;60.50;;;;;;5063180;28;20195;-62
2021/12/29 11:22:21;;;;;;;28.57;21.67;;;9.70;1.00;;;;;;5092165;28;20193;-62
2021/12/29 11:24:58;;;;;;;27.33;22.33;;;9.70;1.00;;;;;;5066381;28;20210;-61
2021/12/29 11:27:30;;;;;;;28.73;21.87;;;9.70;1.00;;;;;;5079601;28;20277;-63
2021/12/29 11:30:00;;;;;;;28.70;22.60;;;9.90;1.00;;;;;;5063597;28;20250;-62
2021/12/29 11:32:34;;;;;;;28.10;21.33;;;10.00;1.00;;;;;;5081866;28;20692;-63
2021/12/29 11:35:12;;;;;;;29.37;21.70;;;10.00;1.00;;;;;;5084682;28;20186;-63
2021/12/29 11:37:52;;;;;;;27.90;20.57;;;10.00;99.90;;;;;;5062270;28;20191;-62
2021/12/29 11:40:24;;;;;;;29.83;21.90;;;10.00;1.00;;;;;;5068917;28;20236;-63
2021/12/29 11:42:52;;;;;;;27.47;21.83;;;10.00;99.90;;;;;;5071612;28;20194;-63
2021/12/29 11:45:21;;;;;;;26.17;21.57;;;9.90;99.90;;;;;;5069796;28;20893;-63
2021/12/29 11:47:49;;;;;;;32.50;22.40;;;10.00;1.00;;;;;;5090216;28;20282;-64
2021/12/29 11:50:34;;;;;;;29.73;22.23;;;9.90;99.90;;;;;;5089752;28;20322;-63
2021/12/29 11:53:23;;;;;;;27.13;22.20;;;10.00;99.90;;;;;;5072651;28;20746;-63
2021/12/29 11:55:56;;;;;;;30.73;23.53;;;9.90;99.90;;;;;;5055609;28;20204;-63
2021/12/29 11:58:30;;;;;;;29.37;23.83;;;10.00;1.00;;;;;;5072792;28;20768;-62
2021/12/29 12:01:06;;;;;;;29.97;23.63;;;10.00;99.90;;;;;;5072977;28;20223;-62
2021/12/29 12:03:58;;;;;;;29.23;23.23;;;10.20;1.00;;;;;;5069962;28;20213;-62
2021/12/29 12:06:43;;;;;;;26.13;22.40;;;10.30;99.90;;;;;;5084296;28;20271;-64
2021/12/29 12:09:16;;;;;;;31.00;21.93;;;10.40;1.00;;;;;;5056194;28;20247;-63
2021/12/29 12:11:52;;;;;;;25.70;20.77;;;10.50;4.90;;;;;;5090410;28;20194;-63
2021/12/29 12:14:43;;;;;;;29.17;23.13;;;10.70;1.00;;;;;;5089496;28;20610;-64
2021/12/29 12:17:19;;;;;;;26.53;20.03;;;10.70;1.00;;;;;;5089226;28;20301;-63
2021/12/29 12:19:59;;;;;;;25.27;20.93;;;10.60;1.00;;;;;;5087340;28;20267;-64
2021/12/29 12:22:28;;;;;;;26.27;20.60;;;10.50;1.00;;;;;;5085871;28;20194;-63
2021/12/29 12:24:58;;;;;;;24.33;18.37;;;10.60;1.00;;;;;;5068774;28;20234;-63
2021/12/29 12:27:25;;;;;;;20.90;17.93;;;10.80;1.00;;;;;;5063515;28;20240;-64
2021/12/29 12:30:20;;;;;;;22.47;18.20;;;10.90;1.00;;;;;;5087117;28;20247;-63
2021/12/29 12:32:49;;;;;;;22.30;17.73;;;10.70;1.00;;;;;;5087976;28;20254;-63
2021/12/29 12:35:37;;;;;;;20.80;17.60;;;10.70;1.00;;;;;;5086475;28;20273;-63
2021/12/29 12:38:35;;;;;;;22.80;18.50;;;10.60;1.00;;;;;;5057170;28;20251;-63
2021/12/29 12:41:10;;;;;;;24.63;18.50;;;10.60;1.00;;;;;;5054838;28;20213;-64
2021/12/29 12:43:59;;;;;;;22.33;18.30;;;10.50;1.00;;;;;;5087268;28;20596;-64
2021/12/29 12:46:29;;;;;;;21.13;17.80;;;10.40;1.00;;;;;;5090183;28;20289;-63
2021/12/29 12:48:57;;;;;;;21.40;16.87;;;10.30;1.00;;;;;;5071902;28;20240;-64
2021/12/29 12:51:24;;;;;;;21.37;17.57;;;10.30;1.00;;;;;;5087278;28;20254;-64
2021/12/29 12:53:51;;;;;;;19.77;17.63;;;10.30;1.00;;;;;;5054169;28;20325;-63
2021/12/29 12:56:22;;;;;;;22.43;19.10;;;10.20;1.00;;;;;;5090643;28;20186;-63
2021/12/29 12:58:51;;;;;;;22.20;16.77;;;10.10;1.00;;;;;;5089705;28;20190;-63
2021/12/29 13:01:23;;;;;;;19.63;15.13;;;10.10;1.00;;;;;;5071875;28;20612;-63
2021/12/29 13:04:03;;;;;;;18.67;14.90;;;10.10;1.00;;;;;;5091123;28;20548;-63
2021/12/29 13:06:35;;;;;;;19.77;15.10;;;10.00;1.00;;;;;;5092936;28;20254;-63